Time;durP1;ratioP1;P1;durP2;ratioP2;P2;SDS_P1;SDS_P2;PMS_P1;PMS_P2;Temp;Humidity;BMP_temperature;BMP_pressure;BME280_temperature;BME280_humidity;BME280_pressure;Samples;Min_cycle;Max_cycle;Signal;HPM_P1;HPM_P2
2024/02/21 00:00:44;;;;;;;24.00;10.93;;;8.90;99.90;;;;;;5015372;28;20222;-62
2024/02/21 00:03:12;;;;;;;29.93;10.37;;;8.90;99.90;;;;;;5016513;28;20252;-62
2024/02/21 00:05:40;;;;;;;28.40;10.97;;;8.90;99.90;;;;;;5014944;28;20237;-62
2024/02/21 00:08:09;;;;;;;25.03;10.33;;;9.00;99.90;;;;;;5016423;28;20218;-62
2024/02/21 00:10:37;;;;;;;27.13;10.23;;;9.00;99.90;;;;;;5014688;28;20241;-62
2024/02/21 00:13:05;;;;;;;23.87;9.50;;;8.90;99.90;;;;;;4999373;28;20222;-62
2024/02/21 00:15:34;;;;;;;32.47;10.27;;;8.90;99.90;;;;;;4990072;28;20313;-62
2024/02/21 00:18:03;;;;;;;34.03;10.43;;;8.90;99.90;;;;;;4990288;28;20589;-62
2024/02/21 00:20:32;;;;;;;26.60;10.33;;;8.90;99.90;;;;;;4993372;28;20197;-62
2024/02/21 00:23:00;;;;;;;22.73;10.20;;;8.90;99.90;;;;;;5000327;28;20206;-61
2024/02/21 00:25:28;;;;;;;27.07;10.10;;;8.90;99.90;;;;;;4997060;28;20223;-62
2024/02/21 00:27:57;;;;;;;27.20;9.93;;;8.80;99.90;;;;;;4997855;28;20759;-62
2024/02/21 00:30:25;;;;;;;30.30;10.43;;;8.80;99.90;;;;;;4993072;28;20222;-62
2024/02/21 00:32:54;;;;;;;24.87;9.43;;;8.80;99.90;;;;;;4998336;28;20894;-62
2024/02/21 00:35:23;;;;;;;23.17;9.57;;;8.80;99.90;;;;;;4995803;28;20194;-62
2024/02/21 00:37:52;;;;;;;35.70;10.80;;;8.70;99.90;;;;;;4998647;28;20198;-62
2024/02/21 00:40:21;;;;;;;24.73;10.17;;;8.70;99.90;;;;;;4997672;28;20214;-62
2024/02/21 00:42:50;;;;;;;24.60;9.90;;;8.70;99.90;;;;;;4998206;28;20265;-62
2024/02/21 00:45:18;;;;;;;24.77;10.13;;;8.70;99.90;;;;;;4998431;28;20737;-62
2024/02/21 00:47:47;;;;;;;24.30;9.23;;;8.70;99.90;;;;;;4993963;28;20225;-62
2024/02/21 00:50:15;;;;;;;23.77;8.43;;;8.70;99.90;;;;;;4991146;28;20199;-61
2024/02/21 00:52:45;;;;;;;24.80;9.37;;;8.80;99.90;;;;;;4994660;28;20218;-62
2024/02/21 00:55:13;;;;;;;24.93;9.63;;;8.70;99.90;;;;;;4992215;28;20225;-61
2024/02/21 00:57:41;;;;;;;29.57;9.67;;;8.70;99.90;;;;;;4998804;28;20225;-61
2024/02/21 01:00:11;;;;;;;29.03;9.67;;;8.70;99.90;;;;;;4997162;28;20233;-62
2024/02/21 01:02:39;;;;;;;25.00;8.70;;;8.60;99.90;;;;;;5000117;28;20674;-62
2024/02/21 01:05:08;;;;;;;24.63;8.93;;;8.50;99.90;;;;;;5014682;28;20545;-62
2024/02/21 01:07:36;;;;;;;29.83;9.13;;;8.50;99.90;;;;;;5018763;28;20218;-61
2024/02/21 01:10:07;;;;;;;26.73;9.07;;;8.40;99.90;;;;;;5019766;28;20295;-61
2024/02/21 01:12:35;;;;;;;18.90;8.33;;;8.40;99.90;;;;;;5012958;28;20250;-62
2024/02/21 01:15:04;;;;;;;25.23;9.77;;;8.30;99.90;;;;;;5013382;28;20226;-63
2024/02/21 01:17:33;;;;;;;31.43;9.20;;;8.20;99.90;;;;;;5014813;28;20190;-62
2024/02/21 01:20:05;;;;;;;31.77;9.47;;;8.10;99.90;;;;;;5009199;28;20185;-62
2024/02/21 01:22:33;;;;;;;33.87;10.23;;;8.10;99.90;;;;;;5015133;28;20257;-61
2024/02/21 01:25:02;;;;;;;30.40;9.67;;;8.00;99.90;;;;;;5013208;28;20253;-61
2024/02/21 01:27:32;;;;;;;27.10;9.93;;;8.00;99.90;;;;;;5046726;28;20225;-61
2024/02/21 01:30:00;;;;;;;30.40;10.17;;;8.00;99.90;;;;;;5015847;28;20233;-61
2024/02/21 01:32:28;;;;;;;27.77;10.57;;;8.00;99.90;;;;;;5014344;28;20545;-61
2024/02/21 01:34:56;;;;;;;30.77;10.63;;;8.10;99.90;;;;;;5017182;28;20665;-61
2024/02/21 01:37:25;;;;;;;29.93;10.43;;;8.10;99.90;;;;;;5014498;28;20257;-61
2024/02/21 01:39:54;;;;;;;28.40;11.60;;;8.10;99.90;;;;;;5016922;28;20333;-61
2024/02/21 01:42:22;;;;;;;34.00;10.60;;;8.00;99.90;;;;;;5016340;28;20226;-61
2024/02/21 01:44:52;;;;;;;26.93;10.37;;;8.00;99.90;;;;;;5012224;28;20213;-61
2024/02/21 01:47:20;;;;;;;26.43;10.40;;;8.00;99.90;;;;;;5011152;28;20194;-61
2024/02/21 01:49:48;;;;;;;30.10;9.93;;;8.00;99.90;;;;;;5017799;28;20646;-61
2024/02/21 01:52:18;;;;;;;28.13;11.00;;;8.00;99.90;;;;;;5018401;28;20254;-61
2024/02/21 01:54:48;;;;;;;29.47;11.13;;;7.90;99.90;;;;;;5014142;28;20229;-62
2024/02/21 01:57:16;;;;;;;26.33;10.90;;;8.00;99.90;;;;;;5013537;28;20217;-61
2024/02/21 01:59:45;;;;;;;31.23;11.00;;;7.90;99.90;;;;;;5016493;28;20233;-61
2024/02/21 02:02:16;;;;;;;29.97;11.27;;;7.90;99.90;;;;;;5015087;28;20197;-61
2024/02/21 02:04:45;;;;;;;27.80;11.30;;;7.90;99.90;;;;;;4984852;28;20226;-61
2024/02/21 02:07:14;;;;;;;29.03;11.73;;;7.90;99.90;;;;;;4991583;28;20233;-61
2024/02/21 02:09:43;;;;;;;36.13;11.57;;;7.90;99.90;;;;;;4993827;28;20227;-61
2024/02/21 02:12:11;;;;;;;34.10;10.97;;;7.90;99.90;;;;;;5005878;28;20245;-61
2024/02/21 02:14:39;;;;;;;31.57;10.80;;;7.90;99.90;;;;;;5017448;28;20228;-61
2024/02/21 02:17:09;;;;;;;27.80;11.20;;;8.00;99.90;;;;;;5011884;28;20282;-61
2024/02/21 02:19:38;;;;;;;30.53;11.20;;;8.00;99.90;;;;;;4996617;28;20222;-61
2024/02/21 02:22:14;;;;;;;36.43;11.27;;;7.90;99.90;;;;;;4993145;28;20313;-61
2024/02/21 02:24:44;;;;;;;27.93;11.30;;;7.90;99.90;;;;;;4996553;28;20233;-61
2024/02/21 02:27:12;;;;;;;30.63;11.10;;;7.90;99.90;;;;;;4992612;28;20213;-61
2024/02/21 02:29:40;;;;;;;29.73;10.90;;;7.90;99.90;;;;;;4993166;28;20222;-61
2024/02/21 02:32:09;;;;;;;27.77;11.03;;;7.80;99.90;;;;;;4991057;28;20194;-61
2024/02/21 02:34:37;;;;;;;28.70;10.97;;;7.90;99.90;;;;;;4997951;28;20731;-62
2024/02/21 02:37:05;;;;;;;32.13;11.90;;;7.90;99.90;;;;;;4991469;28;20221;-61
2024/02/21 02:39:33;;;;;;;30.27;11.50;;;8.00;99.90;;;;;;4993191;28;20217;-61
2024/02/21 02:42:03;;;;;;;24.50;11.10;;;8.00;99.90;;;;;;5002225;28;20232;-61
2024/02/21 02:44:32;;;;;;;27.40;11.10;;;8.00;99.90;;;;;;5001735;28;20209;-62
2024/02/21 02:47:00;;;;;;;25.60;11.60;;;8.00;99.90;;;;;;4992538;28;20714;-61
2024/02/21 02:49:28;;;;;;;30.37;11.57;;;8.00;99.90;;;;;;4992169;28;20223;-61
2024/02/21 02:51:56;;;;;;;28.27;11.17;;;8.00;99.90;;;;;;4995718;28;20237;-62
2024/02/21 02:54:25;;;;;;;27.10;11.17;;;8.00;99.90;;;;;;5000639;28;20622;-61
2024/02/21 02:56:54;;;;;;;30.20;10.77;;;7.90;99.90;;;;;;4998764;28;20638;-61
2024/02/21 02:59:24;;;;;;;27.60;11.57;;;7.90;99.90;;;;;;4996029;28;20194;-61
2024/02/21 03:01:52;;;;;;;24.67;11.10;;;7.80;99.90;;;;;;4996557;28;20202;-61
2024/02/21 03:04:20;;;;;;;26.67;10.97;;;7.80;99.90;;;;;;4998301;28;20214;-61
2024/02/21 03:06:49;;;;;;;22.77;11.27;;;7.80;99.90;;;;;;4991669;28;20234;-62
2024/02/21 03:09:17;;;;;;;31.83;11.40;;;7.80;99.90;;;;;;4995595;28;20268;-61
2024/02/21 03:11:45;;;;;;;32.37;12.20;;;7.80;99.90;;;;;;4998023;28;20233;-61
2024/02/21 03:14:14;;;;;;;33.33;11.70;;;7.80;99.90;;;;;;5002824;28;20190;-61
2024/02/21 03:16:43;;;;;;;28.03;10.63;;;7.80;99.90;;;;;;4997850;28;20230;-61
2024/02/21 03:19:12;;;;;;;25.17;12.33;;;7.90;99.90;;;;;;4997864;28;20292;-61
2024/02/21 03:21:40;;;;;;;27.37;10.83;;;7.90;99.90;;;;;;4991740;28;20626;-61
2024/02/21 03:24:08;;;;;;;26.73;11.40;;;8.00;99.90;;;;;;4995154;28;20237;-61
2024/02/21 03:26:37;;;;;;;26.13;11.53;;;8.00;99.90;;;;;;4996431;28;20245;-61
2024/02/21 03:29:05;;;;;;;25.53;11.63;;;8.00;99.90;;;;;;4994022;28;20221;-61
2024/02/21 03:31:33;;;;;;;28.20;11.27;;;8.00;99.90;;;;;;5006658;28;20278;-61
2024/02/21 03:34:03;;;;;;;25.67;11.83;;;7.90;99.90;;;;;;4998557;28;20233;-61
2024/02/21 03:36:32;;;;;;;31.53;11.20;;;7.90;99.90;;;;;;4994834;28;20645;-61
2024/02/21 03:39:00;;;;;;;27.90;11.90;;;7.90;99.90;;;;;;4997143;28;20222;-61
2024/02/21 03:41:28;;;;;;;33.87;12.60;;;7.90;99.90;;;;;;4997261;28;20287;-61
2024/02/21 03:43:57;;;;;;;29.60;11.47;;;7.80;99.90;;;;;;5000617;28;20247;-61
2024/02/21 03:46:25;;;;;;;34.33;12.37;;;7.80;99.90;;;;;;5000677;28;20284;-61
2024/02/21 03:48:54;;;;;;;25.40;12.03;;;7.80;99.90;;;;;;4995453;28;20234;-61
2024/02/21 03:51:24;;;;;;;32.20;12.33;;;7.80;99.90;;;;;;4992320;28;20233;-61
2024/02/21 03:53:52;;;;;;;39.10;12.80;;;7.80;99.90;;;;;;5000307;28;20218;-61
2024/02/21 03:56:20;;;;;;;27.10;12.00;;;7.80;99.90;;;;;;5006677;28;20653;-61
2024/02/21 03:58:51;;;;;;;29.77;12.63;;;7.90;99.90;;;;;;4998344;28;20572;-61
2024/02/21 04:01:19;;;;;;;25.67;12.57;;;7.90;99.90;;;;;;4998240;28;20222;-61
2024/02/21 04:03:47;;;;;;;31.87;13.10;;;7.90;99.90;;;;;;4994697;28;20230;-61
2024/02/21 04:06:16;;;;;;;37.47;12.77;;;7.90;99.90;;;;;;5000977;28;20226;-61
2024/02/21 04:08:46;;;;;;;31.57;13.17;;;7.90;99.90;;;;;;4995355;28;20237;-62
2024/02/21 04:11:14;;;;;;;28.37;12.33;;;7.90;99.90;;;;;;4998053;28;20272;-61
2024/02/21 04:13:43;;;;;;;33.53;13.30;;;7.90;99.90;;;;;;4994830;28;20218;-62
2024/02/21 04:16:11;;;;;;;25.23;12.13;;;7.90;99.90;;;;;;4997727;28;20245;-61
2024/02/21 04:18:41;;;;;;;28.63;12.37;;;7.90;99.90;;;;;;4995301;28;20324;-61
2024/02/21 04:21:09;;;;;;;30.87;12.87;;;7.90;99.90;;;;;;4994972;28;20218;-62
2024/02/21 04:23:40;;;;;;;30.20;12.93;;;7.90;99.90;;;;;;4990807;28;20326;-61
2024/02/21 04:26:09;;;;;;;31.47;12.87;;;7.90;99.90;;;;;;4994375;28;20677;-62
2024/02/21 04:28:38;;;;;;;22.07;11.70;;;7.90;99.90;;;;;;4999400;28;20225;-61
2024/02/21 04:31:06;;;;;;;29.13;12.97;;;8.00;99.90;;;;;;4999449;28;20293;-62
2024/02/21 04:33:34;;;;;;;25.57;12.20;;;7.90;99.90;;;;;;4998778;28;20310;-61
2024/02/21 04:36:03;;;;;;;24.50;12.87;;;7.90;99.90;;;;;;4999355;28;20237;-62
2024/02/21 04:38:32;;;;;;;27.83;12.13;;;8.00;99.90;;;;;;4996262;28;20206;-61
2024/02/21 04:41:00;;;;;;;27.80;12.13;;;8.00;99.90;;;;;;4998602;28;20229;-62
2024/02/21 04:43:32;;;;;;;32.40;12.80;;;8.00;99.90;;;;;;4996096;28;20218;-61
2024/02/21 04:46:01;;;;;;;33.20;12.37;;;7.90;99.90;;;;;;4998264;28;20218;-62
2024/02/21 04:48:29;;;;;;;30.70;12.60;;;7.90;99.90;;;;;;4994293;28;20226;-61
2024/02/21 04:50:57;;;;;;;29.03;12.37;;;7.90;99.90;;;;;;4995474;28;20234;-62
2024/02/21 04:53:25;;;;;;;32.27;13.17;;;7.90;99.90;;;;;;4997755;28;20195;-61
2024/02/21 04:55:55;;;;;;;27.70;12.30;;;7.90;99.90;;;;;;5015712;28;20287;-61
2024/02/21 04:58:24;;;;;;;32.97;12.20;;;7.90;99.90;;;;;;5015696;28;20618;-61
2024/02/21 05:00:56;;;;;;;29.17;12.80;;;8.00;99.90;;;;;;5015243;28;20747;-62
2024/02/21 05:03:25;;;;;;;31.70;12.10;;;8.00;99.90;;;;;;5012311;28;20799;-61
2024/02/21 05:05:53;;;;;;;27.83;12.00;;;8.00;99.90;;;;;;5016377;28;20234;-62
2024/02/21 05:08:22;;;;;;;20.93;11.77;;;8.00;99.90;;;;;;5013427;28;20285;-61
2024/02/21 05:10:50;;;;;;;29.17;12.57;;;8.00;99.90;;;;;;5018011;28;20221;-61
2024/02/21 05:13:18;;;;;;;27.30;11.97;;;8.00;99.90;;;;;;5015353;28;20221;-61
2024/02/21 05:15:46;;;;;;;24.33;11.40;;;8.00;99.90;;;;;;5011807;28;20217;-62
2024/02/21 05:18:16;;;;;;;28.50;12.50;;;8.00;99.90;;;;;;5016013;28;20224;-62
2024/02/21 05:20:45;;;;;;;26.03;11.33;;;8.00;99.90;;;;;;5019899;28;20240;-62
2024/02/21 05:23:13;;;;;;;29.57;11.17;;;8.00;99.90;;;;;;5014732;28;20231;-61
2024/02/21 05:25:41;;;;;;;28.70;11.90;;;8.00;99.90;;;;;;5016614;28;20598;-61
2024/02/21 05:28:09;;;;;;;25.20;11.03;;;8.00;99.90;;;;;;5015841;28;20230;-62
2024/02/21 05:30:37;;;;;;;22.87;11.87;;;8.00;99.90;;;;;;5012393;28;20469;-62
2024/02/21 05:33:07;;;;;;;26.80;12.00;;;8.00;99.90;;;;;;5014769;28;20573;-62
2024/02/21 05:35:37;;;;;;;21.93;11.90;;;8.00;99.90;;;;;;5019034;28;20197;-61
2024/02/21 05:38:11;;;;;;;26.97;12.17;;;8.10;99.90;;;;;;5016692;28;20204;-61
2024/02/21 05:40:39;;;;;;;24.50;11.03;;;8.10;99.90;;;;;;5011679;28;20670;-62
2024/02/21 05:43:08;;;;;;;26.90;11.37;;;8.10;99.90;;;;;;5013603;28;20682;-61
2024/02/21 05:45:37;;;;;;;23.50;11.10;;;8.10;99.90;;;;;;5006949;28;20316;-61
2024/02/21 05:48:05;;;;;;;22.07;11.33;;;8.10;99.90;;;;;;4997279;28;20222;-62
2024/02/21 05:50:36;;;;;;;26.27;12.23;;;8.10;99.90;;;;;;5000777;28;20201;-61
2024/02/21 05:53:07;;;;;;;27.33;11.13;;;8.20;99.90;;;;;;4993127;28;20289;-62
2024/02/21 05:55:36;;;;;;;30.63;11.43;;;8.20;99.90;;;;;;4997194;28;20228;-61
2024/02/21 05:58:05;;;;;;;23.60;11.23;;;8.20;99.90;;;;;;5002269;28;20222;-62
2024/02/21 06:00:34;;;;;;;26.80;11.30;;;8.20;99.90;;;;;;5002065;28;20309;-62
2024/02/21 06:03:03;;;;;;;21.30;10.60;;;8.20;99.90;;;;;;5007243;28;20218;-62
2024/02/21 06:05:31;;;;;;;26.17;11.17;;;8.20;99.90;;;;;;4998438;28;20203;-62
2024/02/21 06:08:01;;;;;;;25.03;11.03;;;8.20;99.90;;;;;;4996292;28;20301;-61
2024/02/21 06:10:29;;;;;;;21.63;11.43;;;8.20;99.90;;;;;;5000211;28;20289;-62
2024/02/21 06:12:57;;;;;;;20.30;11.63;;;8.30;99.90;;;;;;4996788;28;20241;-62
2024/02/21 06:15:26;;;;;;;23.97;11.10;;;8.30;99.90;;;;;;4995046;28;20221;-62
2024/02/21 06:17:54;;;;;;;26.37;11.57;;;8.30;99.90;;;;;;4998663;28;20234;-61
2024/02/21 06:20:22;;;;;;;22.10;11.30;;;8.30;99.90;;;;;;4995264;28;20645;-60
2024/02/21 06:22:50;;;;;;;26.27;11.87;;;8.30;99.90;;;;;;4997383;28;20198;-62
2024/02/21 06:25:20;;;;;;;23.87;11.77;;;8.30;99.90;;;;;;4995865;28;20222;-62
2024/02/21 06:27:48;;;;;;;19.37;10.33;;;8.30;99.90;;;;;;5000631;28;20242;-61
2024/02/21 06:30:16;;;;;;;22.53;11.10;;;8.30;99.90;;;;;;4992654;28;20222;-62
2024/02/21 06:32:45;;;;;;;17.07;10.30;;;8.30;99.90;;;;;;4996544;28;20236;-62
2024/02/21 06:35:13;;;;;;;23.40;11.30;;;8.30;99.90;;;;;;4997258;28;20221;-62
2024/02/21 06:37:42;;;;;;;25.03;11.27;;;8.30;99.90;;;;;;4998845;28;20253;-63
2024/02/21 06:40:11;;;;;;;23.07;11.13;;;8.30;99.90;;;;;;4999706;28;20222;-62
2024/02/21 06:42:40;;;;;;;21.27;10.50;;;8.40;99.90;;;;;;4997109;28;20234;-62
2024/02/21 06:45:09;;;;;;;18.67;11.27;;;8.40;99.90;;;;;;4998213;28;20659;-62
2024/02/21 06:47:37;;;;;;;20.70;10.93;;;8.40;99.90;;;;;;5000722;28;20236;-62
2024/02/21 06:50:07;;;;;;;22.03;11.40;;;8.40;99.90;;;;;;5003350;28;20677;-62
2024/02/21 06:52:35;;;;;;;23.10;11.50;;;8.40;99.90;;;;;;4995326;28;20226;-62
2024/02/21 06:55:04;;;;;;;16.70;10.97;;;8.40;99.90;;;;;;5001824;28;20731;-62
2024/02/21 06:57:32;;;;;;;27.23;11.37;;;8.40;99.90;;;;;;5010810;28;20305;-62
2024/02/21 07:00:02;;;;;;;19.23;10.40;;;8.30;99.90;;;;;;4998658;28;20238;-62
2024/02/21 07:02:30;;;;;;;20.70;10.73;;;8.40;99.90;;;;;;4998496;28;20661;-63
2024/02/21 07:04:58;;;;;;;16.00;10.80;;;8.40;99.90;;;;;;4999058;28;20565;-62
2024/02/21 07:07:27;;;;;;;15.10;10.37;;;8.50;99.90;;;;;;5000327;28;20272;-62
2024/02/21 07:09:55;;;;;;;19.23;11.43;;;8.40;99.90;;;;;;5002051;28;20281;-62
2024/02/21 07:12:24;;;;;;;18.10;11.43;;;8.40;99.90;;;;;;5001979;28;20230;-62
2024/02/21 07:14:52;;;;;;;20.67;11.17;;;8.40;99.90;;;;;;4998594;28;20246;-62
2024/02/21 07:17:21;;;;;;;17.43;10.90;;;8.40;99.90;;;;;;5001078;28;20221;-62
2024/02/21 07:19:50;;;;;;;23.20;11.53;;;8.40;99.90;;;;;;5000208;28;20200;-62
2024/02/21 07:22:20;;;;;;;22.07;12.27;;;8.40;99.90;;;;;;4998483;28;20257;-62
2024/02/21 07:24:48;;;;;;;21.87;11.27;;;8.50;99.90;;;;;;4997184;28;20214;-62
2024/02/21 07:27:16;;;;;;;21.83;11.67;;;8.50;99.90;;;;;;4995243;28;20228;-62
2024/02/21 07:29:47;;;;;;;22.87;12.57;;;8.50;99.90;;;;;;5001258;28;20800;-61
2024/02/21 07:32:15;;;;;;;18.33;11.17;;;8.50;99.90;;;;;;4999365;28;20218;-62
2024/02/21 07:34:45;;;;;;;19.63;11.80;;;8.50;99.90;;;;;;5020214;28;20228;-62
2024/02/21 07:37:14;;;;;;;20.63;11.30;;;8.60;99.90;;;;;;5025007;28;20664;-63
2024/02/21 07:39:42;;;;;;;20.55;12.68;;;8.60;99.90;;;;;;5012537;28;20444;-61
2024/02/21 07:42:10;;;;;;;19.57;11.23;;;8.60;99.90;;;;;;5017310;28;20340;-62
2024/02/21 07:44:39;;;;;;;21.60;12.07;;;8.60;99.90;;;;;;5019060;28;20719;-62
2024/02/21 07:47:07;;;;;;;18.90;11.63;;;8.60;99.90;;;;;;5017653;28;20201;-62
2024/02/21 07:49:42;;;;;;;19.07;12.13;;;8.60;99.90;;;;;;5018947;28;20258;-62
2024/02/21 07:52:12;;;;;;;23.03;12.47;;;8.60;99.90;;;;;;5019233;28;20314;-62
2024/02/21 07:54:41;;;;;;;25.53;12.37;;;8.60;99.90;;;;;;5020385;28;20272;-62
2024/02/21 07:57:09;;;;;;;19.13;11.57;;;8.60;99.90;;;;;;5020317;28;20217;-62
2024/02/21 07:59:38;;;;;;;21.70;12.30;;;8.60;99.90;;;;;;5017009;28;20221;-62
2024/02/21 08:02:06;;;;;;;21.87;12.23;;;8.50;99.90;;;;;;5018027;28;20190;-62
2024/02/21 08:04:35;;;;;;;23.37;12.27;;;8.60;99.90;;;;;;5013821;28;20329;-62
2024/02/21 08:07:04;;;;;;;20.17;12.07;;;8.50;99.90;;;;;;5018906;28;20226;-62
2024/02/21 08:09:34;;;;;;;18.73;11.60;;;8.50;99.90;;;;;;5013882;28;20221;-61
2024/02/21 08:12:02;;;;;;;24.90;12.07;;;8.50;99.90;;;;;;5022626;28;20221;-62
2024/02/21 08:14:31;;;;;;;21.03;12.43;;;8.50;99.90;;;;;;5019885;28;20202;-62
2024/02/21 08:16:59;;;;;;;21.53;10.90;;;8.50;99.90;;;;;;5021846;28;20196;-62
2024/02/21 08:19:28;;;;;;;16.80;11.13;;;8.60;99.90;;;;;;5020054;28;20248;-61
2024/02/21 08:21:56;;;;;;;22.57;11.57;;;8.60;99.90;;;;;;5019537;28;20217;-62
2024/02/21 08:24:24;;;;;;;23.80;11.80;;;8.60;99.90;;;;;;5018883;28;20280;-62
2024/02/21 08:26:54;;;;;;;19.43;11.20;;;8.60;99.90;;;;;;5018239;28;20237;-62
2024/02/21 08:29:22;;;;;;;18.73;10.90;;;8.70;99.90;;;;;;5019734;28;20201;-61
2024/02/21 08:31:50;;;;;;;18.70;10.73;;;8.70;99.90;;;;;;5014602;28;20217;-62
2024/02/21 08:34:19;;;;;;;21.73;11.17;;;8.70;99.90;;;;;;5019934;28;20735;-62
2024/02/21 08:36:47;;;;;;;21.43;10.70;;;8.70;99.90;;;;;;5019584;28;20229;-62
2024/02/21 08:39:16;;;;;;;18.70;10.27;;;8.70;99.90;;;;;;5019581;28;20236;-62
2024/02/21 08:41:44;;;;;;;16.37;10.70;;;8.80;99.90;;;;;;5014382;28;20222;-63
2024/02/21 08:44:26;;;;;;;22.73;10.60;;;8.80;99.90;;;;;;5019855;28;20189;-62
2024/02/21 08:46:55;;;;;;;24.53;10.90;;;8.70;99.90;;;;;;5022388;28;20487;-62
2024/02/21 08:49:28;;;;;;;19.10;9.90;;;8.70;99.90;;;;;;5014387;28;20218;-62
2024/02/21 08:52:01;;;;;;;15.37;9.40;;;8.80;99.90;;;;;;5013136;28;20225;-62
2024/02/21 08:54:31;;;;;;;20.20;9.87;;;8.80;99.90;;;;;;5019247;28;20241;-62
2024/02/21 08:56:59;;;;;;;20.03;10.03;;;8.70;99.90;;;;;;5018523;28;20252;-62
2024/02/21 08:59:29;;;;;;;14.63;9.17;;;8.70;99.90;;;;;;5016589;28;20193;-62
2024/02/21 09:01:57;;;;;;;15.23;8.43;;;8.70;99.90;;;;;;5015603;28;20264;-62
2024/02/21 09:04:25;;;;;;;17.40;8.63;;;8.70;99.90;;;;;;5019931;28;20998;-62
2024/02/21 09:06:53;;;;;;;14.50;7.97;;;8.70;99.90;;;;;;5045356;28;20233;-62
2024/02/21 09:09:22;;;;;;;14.13;8.33;;;8.80;99.90;;;;;;5013842;28;20230;-62
2024/02/21 09:11:51;;;;;;;17.40;8.40;;;8.80;99.90;;;;;;5015478;28;20312;-62
2024/02/21 09:14:20;;;;;;;10.90;8.07;;;8.80;99.90;;;;;;5019110;28;20217;-62
2024/02/21 09:16:50;;;;;;;14.73;8.13;;;8.90;99.90;;;;;;5017815;28;20196;-62
2024/02/21 09:19:18;;;;;;;13.70;7.43;;;8.90;99.90;;;;;;5014800;28;20324;-62
2024/02/21 09:21:47;;;;;;;20.20;7.20;;;8.90;99.90;;;;;;5020254;28;20913;-62
2024/02/21 09:24:15;;;;;;;11.83;7.17;;;8.90;99.90;;;;;;5015938;28;20218;-62
2024/02/21 09:26:43;;;;;;;13.37;7.03;;;8.90;99.90;;;;;;5019691;28;20234;-62
2024/02/21 09:29:11;;;;;;;12.43;7.33;;;9.00;99.90;;;;;;5020348;28;20221;-62
2024/02/21 09:31:40;;;;;;;7.77;6.47;;;9.10;99.90;;;;;;4995698;28;20708;-62
2024/02/21 09:34:10;;;;;;;12.80;7.03;;;9.10;99.90;;;;;;4995064;28;20218;-62
2024/02/21 09:36:40;;;;;;;11.97;6.70;;;9.10;99.90;;;;;;5005674;28;20222;-62
2024/02/21 09:39:11;;;;;;;13.73;6.90;;;9.10;99.90;;;;;;5017409;28;20232;-61
2024/02/21 09:41:46;;;;;;;14.47;6.37;;;9.20;99.90;;;;;;5016602;28;20229;-62
2024/02/21 09:44:15;;;;;;;18.37;7.10;;;9.20;99.90;;;;;;5022005;28;20300;-62
2024/02/21 09:46:52;;;;;;;8.03;6.73;;;9.30;99.90;;;;;;4981581;28;20570;-62
2024/02/21 09:49:32;;;;;;;11.00;6.10;;;9.30;99.90;;;;;;4993830;28;20230;-62
2024/02/21 09:52:03;;;;;;;13.77;6.10;;;9.40;99.90;;;;;;4997866;28;20221;-62
2024/02/21 09:54:33;;;;;;;10.27;5.90;;;9.40;99.90;;;;;;4999535;28;20254;-62
2024/02/21 09:57:02;;;;;;;7.70;5.57;;;9.50;99.90;;;;;;4997388;28;20257;-62
2024/02/21 09:59:32;;;;;;;11.03;6.37;;;9.50;99.90;;;;;;5000177;28;20919;-62
2024/02/21 10:02:01;;;;;;;11.23;6.30;;;9.50;99.90;;;;;;4993904;28;20789;-62
2024/02/21 10:04:31;;;;;;;11.23;6.13;;;9.60;99.90;;;;;;4994051;28;20229;-62
2024/02/21 10:07:00;;;;;;;10.83;5.87;;;9.60;99.90;;;;;;4989838;28;20664;-62
2024/02/21 10:09:29;;;;;;;9.73;5.73;;;9.60;99.90;;;;;;4997642;28;20272;-62
2024/02/21 10:12:10;;;;;;;13.77;5.90;;;9.60;99.90;;;;;;4997444;28;20589;-62
2024/02/21 10:14:39;;;;;;;9.47;6.20;;;9.60;99.90;;;;;;4996563;28;20246;-62
2024/02/21 10:17:09;;;;;;;10.77;6.30;;;9.50;99.90;;;;;;5002830;28;20190;-62
2024/02/21 10:19:40;;;;;;;12.63;5.97;;;9.50;99.90;;;;;;4997230;28;20226;-62
2024/02/21 10:22:09;;;;;;;11.80;5.80;;;9.60;99.90;;;;;;4997163;28;20229;-62
2024/02/21 10:24:41;;;;;;;10.50;5.57;;;9.60;99.90;;;;;;4993386;28;20234;-62
2024/02/21 10:27:11;;;;;;;8.77;4.97;;;9.60;99.90;;;;;;4995458;28;20222;-62
2024/02/21 10:29:42;;;;;;;10.07;5.17;;;9.60;99.90;;;;;;4998601;28;20230;-62
2024/02/21 10:32:11;;;;;;;11.20;5.60;;;9.70;99.90;;;;;;4999731;28;20905;-62
2024/02/21 10:34:43;;;;;;;6.33;4.73;;;9.70;99.90;;;;;;4996450;28;20218;-61
2024/02/21 10:37:13;;;;;;;10.30;5.37;;;9.80;99.90;;;;;;4996664;28;20223;-62
2024/02/21 10:39:44;;;;;;;7.23;5.33;;;9.80;99.90;;;;;;4993843;28;20227;-62
2024/02/21 10:42:13;;;;;;;9.70;5.33;;;9.80;99.90;;;;;;4997668;28;20221;-62
2024/02/21 10:44:42;;;;;;;7.23;4.70;;;9.80;99.90;;;;;;5003179;28;20272;-62
2024/02/21 10:47:13;;;;;;;11.30;5.20;;;9.80;99.90;;;;;;4999139;28;20194;-62
2024/02/21 10:49:47;;;;;;;15.23;4.93;;;9.80;99.90;;;;;;5021792;28;20736;-62
2024/02/21 10:52:20;;;;;;;9.20;5.10;;;9.70;99.90;;;;;;5005732;28;20218;-63
2024/02/21 10:54:56;;;;;;;10.47;5.00;;;9.80;99.90;;;;;;4998376;28;20227;-62
2024/02/21 10:57:27;;;;;;;11.77;5.03;;;9.80;99.90;;;;;;4996658;28;20292;-62
2024/02/21 10:59:56;;;;;;;11.03;4.90;;;9.80;99.90;;;;;;5001415;28;20351;-62
2024/02/21 11:02:25;;;;;;;13.50;5.20;;;9.80;99.90;;;;;;4995878;28;20206;-62
2024/02/21 11:04:56;;;;;;;10.53;4.80;;;9.80;99.90;;;;;;4999529;28;20198;-62
2024/02/21 11:07:25;;;;;;;7.90;4.77;;;9.80;99.90;;;;;;4996916;28;20233;-62
2024/02/21 11:09:55;;;;;;;10.97;4.53;;;9.80;99.90;;;;;;4999414;28;20253;-62
2024/02/21 11:12:25;;;;;;;12.17;4.97;;;9.80;99.90;;;;;;5000470;28;20222;-62
2024/02/21 11:14:54;;;;;;;13.87;5.40;;;9.80;99.90;;;;;;5000144;28;20760;-62
2024/02/21 11:17:25;;;;;;;8.83;4.90;;;9.80;99.90;;;;;;5001368;28;20190;-62
2024/02/21 11:19:55;;;;;;;9.67;4.67;;;9.80;99.90;;;;;;4999670;28;21555;-62
2024/02/21 11:22:29;;;;;;;8.23;5.03;;;9.70;99.90;;;;;;4999582;28;20238;-62
2024/02/21 11:25:11;;;;;;;10.77;5.20;;;9.70;99.90;;;;;;5001858;28;20686;-62
2024/02/21 11:27:46;;;;;;;11.53;4.90;;;9.70;99.90;;;;;;4999309;28;20562;-62
2024/02/21 11:30:16;;;;;;;5.90;4.87;;;9.80;99.90;;;;;;5001363;28;20209;-62
2024/02/21 11:32:45;;;;;;;15.67;5.27;;;9.80;99.90;;;;;;5015935;28;20304;-63
2024/02/21 11:35:20;;;;;;;8.77;5.27;;;9.80;99.90;;;;;;5015485;28;20664;-62
2024/02/21 11:37:49;;;;;;;12.77;5.37;;;9.80;99.90;;;;;;5007102;28;20210;-62
2024/02/21 11:40:18;;;;;;;8.13;5.00;;;9.90;99.90;;;;;;4998382;28;20756;-62
2024/02/21 11:42:49;;;;;;;9.60;4.90;;;9.90;99.90;;;;;;4994258;28;20589;-62
2024/02/21 11:45:20;;;;;;;12.63;4.50;;;9.90;99.90;;;;;;4991563;28;20470;-62
2024/02/21 11:47:50;;;;;;;7.97;4.60;;;9.90;99.90;;;;;;4996546;28;20229;-62
2024/02/21 11:50:20;;;;;;;8.13;5.00;;;9.90;99.90;;;;;;4999107;28;20637;-62
2024/02/21 11:52:49;;;;;;;14.73;4.77;;;9.90;99.90;;;;;;4999821;28;20203;-63
2024/02/21 11:55:18;;;;;;;5.73;4.70;;;9.90;99.90;;;;;;4994529;28;20721;-62
2024/02/21 11:57:48;;;;;;;6.40;4.90;;;9.90;99.90;;;;;;4997845;28;20280;-62
2024/02/21 12:00:20;;;;;;;10.40;4.83;;;9.90;99.90;;;;;;5000760;28;20227;-62
2024/02/21 12:02:50;;;;;;;8.70;5.00;;;10.00;99.90;;;;;;5002236;28;20313;-63
2024/02/21 12:05:20;;;;;;;13.37;4.40;;;10.00;99.90;;;;;;4996034;28;20194;-62
2024/02/21 12:07:48;;;;;;;11.47;4.63;;;10.00;99.90;;;;;;5004668;28;20225;-63
2024/02/21 12:10:17;;;;;;;5.43;4.70;;;10.00;99.90;;;;;;4985213;28;20293;-62
2024/02/21 12:12:46;;;;;;;7.47;4.77;;;10.00;99.90;;;;;;4985384;28;20231;-62
2024/02/21 12:15:14;;;;;;;10.97;4.90;;;10.00;99.90;;;;;;4991814;28;20312;-63
2024/02/21 12:17:45;;;;;;;12.17;5.30;;;9.90;99.90;;;;;;4990639;28;20233;-62
2024/02/21 12:20:14;;;;;;;5.67;4.53;;;9.90;99.90;;;;;;4985911;28;20190;-62
2024/02/21 12:22:44;;;;;;;8.13;6.00;;;10.00;99.90;;;;;;4991494;28;20242;-62
2024/02/21 12:25:22;;;;;;;8.57;4.87;;;10.00;99.90;;;;;;4990694;28;20222;-62
2024/02/21 12:27:52;;;;;;;8.30;4.90;;;10.00;99.90;;;;;;4996851;28;20228;-62
2024/02/21 12:30:20;;;;;;;8.90;4.70;;;10.10;99.90;;;;;;5000176;28;20234;-63
2024/02/21 12:32:49;;;;;;;7.47;4.57;;;10.20;99.90;;;;;;4990898;28;20236;-62
2024/02/21 12:35:18;;;;;;;5.37;4.67;;;10.20;99.90;;;;;;4988301;28;20214;-61
2024/02/21 12:37:48;;;;;;;6.23;4.50;;;10.30;99.90;;;;;;4992914;28;20229;-62
2024/02/21 12:40:17;;;;;;;7.23;4.70;;;10.30;99.90;;;;;;4995269;28;20231;-63
2024/02/21 12:42:46;;;;;;;14.33;5.03;;;10.30;99.90;;;;;;4987262;28;20934;-63
2024/02/21 12:45:15;;;;;;;5.50;4.20;;;10.40;99.90;;;;;;4990942;28;20210;-62
2024/02/21 12:47:44;;;;;;;7.10;4.60;;;10.40;99.90;;;;;;5004172;28;20223;-62
2024/02/21 12:50:12;;;;;;;6.73;4.87;;;10.50;99.90;;;;;;4992530;28;20199;-62